sensor_id;sensor_type;location;lat;lon;timestamp;temperature;humidity
28632;DHT22;15818;45.534;5.292;2022-11-20T00:01:50;6.20;99.90
28632;DHT22;15818;45.534;5.292;2022-11-20T00:04:15;6.30;99.90
28632;DHT22;15818;45.534;5.292;2022-11-20T00:06:41;6.20;99.90
28632;DHT22;15818;45.534;5.292;2022-11-20T00:09:09;6.30;99.90
28632;DHT22;15818;45.534;5.292;2022-11-20T00:11:35;6.30;99.90
28632;DHT22;15818;45.534;5.292;2022-11-20T00:14:00;6.30;99.90
28632;DHT22;15818;45.534;5.292;2022-11-20T00:16:27;6.30;99.90
28632;DHT22;15818;45.534;5.292;2022-11-20T00:18:53;6.30;99.90
28632;DHT22;15818;45.534;5.292;2022-11-20T00:21:20;6.40;99.90
28632;DHT22;15818;45.534;5.292;2022-11-20T00:23:46;6.30;99.90
28632;DHT22;15818;45.534;5.292;2022-11-20T00:26:13;6.20;99.90
28632;DHT22;15818;45.534;5.292;2022-11-20T00:28:39;6.10;99.90
28632;DHT22;15818;45.534;5.292;2022-11-20T00:31:08;6.20;99.90
28632;DHT22;15818;45.534;5.292;2022-11-20T00:33:34;6.20;99.90
28632;DHT22;15818;45.534;5.292;2022-11-20T00:36:03;6.20;99.90
28632;DHT22;15818;45.534;5.292;2022-11-20T00:38:30;6.30;99.90
28632;DHT22;15818;45.534;5.292;2022-11-20T00:40:56;6.30;99.90
28632;DHT22;15818;45.534;5.292;2022-11-20T00:43:22;6.20;99.90
28632;DHT22;15818;45.534;5.292;2022-11-20T00:45:47;6.20;99.90
28632;DHT22;15818;45.534;5.292;2022-11-20T00:48:13;6.30;99.90
28632;DHT22;15818;45.534;5.292;2022-11-20T00:50:38;6.30;99.90
28632;DHT22;15818;45.534;5.292;2022-11-20T00:53:04;6.20;99.90
28632;DHT22;15818;45.534;5.292;2022-11-20T00:55:30;6.20;99.90
28632;DHT22;15818;45.534;5.292;2022-11-20T00:57:55;6.20;99.90
28632;DHT22;15818;45.534;5.292;2022-11-20T01:00:21;6.10;99.90
28632;DHT22;15818;45.534;5.292;2022-11-20T01:02:46;6.10;99.90
28632;DHT22;15818;45.534;5.292;2022-11-20T01:05:12;6.10;99.90
28632;DHT22;15818;45.534;5.292;2022-11-20T01:07:37;6.10;99.90
28632;DHT22;15818;45.534;5.292;2022-11-20T01:10:03;6.20;99.90
28632;DHT22;15818;45.534;5.292;2022-11-20T01:12:29;6.20;99.90
28632;DHT22;15818;45.534;5.292;2022-11-20T01:14:54;6.20;99.90
28632;DHT22;15818;45.534;5.292;2022-11-20T01:17:20;6.10;99.90
28632;DHT22;15818;45.534;5.292;2022-11-20T01:19:48;6.00;99.90
28632;DHT22;15818;45.534;5.292;2022-11-20T01:22:13;5.80;99.90
28632;DHT22;15818;45.534;5.292;2022-11-20T01:24:39;5.70;99.90
28632;DHT22;15818;45.534;5.292;2022-11-20T01:27:04;5.60;99.90
28632;DHT22;15818;45.534;5.292;2022-11-20T01:29:30;5.50;99.90
28632;DHT22;15818;45.534;5.292;2022-11-20T01:31:55;5.60;99.90
28632;DHT22;15818;45.534;5.292;2022-11-20T01:34:21;5.50;99.90
28632;DHT22;15818;45.534;5.292;2022-11-20T01:36:47;5.50;99.90
28632;DHT22;15818;45.534;5.292;2022-11-20T01:39:14;5.40;99.90
28632;DHT22;15818;45.534;5.292;2022-11-20T01:41:40;5.40;99.90
28632;DHT22;15818;45.534;5.292;2022-11-20T01:47:09;5.70;99.90
28632;DHT22;15818;45.534;5.292;2022-11-20T01:49:39;5.80;99.90
28632;DHT22;15818;45.534;5.292;2022-11-20T01:52:28;5.90;99.90
28632;DHT22;15818;45.534;5.292;2022-11-20T01:54:53;6.10;99.90
28632;DHT22;15818;45.534;5.292;2022-11-20T01:57:20;6.20;99.90
28632;DHT22;15818;45.534;5.292;2022-11-20T02:00:00;6.20;99.90
28632;DHT22;15818;45.534;5.292;2022-11-20T02:02:26;6.20;99.90
28632;DHT22;15818;45.534;5.292;2022-11-20T02:04:52;6.30;99.90
28632;DHT22;15818;45.534;5.292;2022-11-20T02:07:20;6.30;99.90
28632;DHT22;15818;45.534;5.292;2022-11-20T02:09:46;6.40;99.90
28632;DHT22;15818;45.534;5.292;2022-11-20T02:12:11;6.40;99.90
28632;DHT22;15818;45.534;5.292;2022-11-20T02:14:57;6.40;99.90
28632;DHT22;15818;45.534;5.292;2022-11-20T02:17:23;6.30;99.90
28632;DHT22;15818;45.534;5.292;2022-11-20T02:19:49;6.30;99.90
28632;DHT22;15818;45.534;5.292;2022-11-20T02:22:17;6.30;99.90
28632;DHT22;15818;45.534;5.292;2022-11-20T02:24:44;6.30;99.90
28632;DHT22;15818;45.534;5.292;2022-11-20T02:27:11;6.30;99.90
28632;DHT22;15818;45.534;5.292;2022-11-20T02:29:39;6.30;99.90
28632;DHT22;15818;45.534;5.292;2022-11-20T02:32:06;6.20;99.90
28632;DHT22;15818;45.534;5.292;2022-11-20T02:34:31;6.30;99.90
28632;DHT22;15818;45.534;5.292;2022-11-20T02:36:57;6.30;99.90
28632;DHT22;15818;45.534;5.292;2022-11-20T02:39:24;6.30;99.90
28632;DHT22;15818;45.534;5.292;2022-11-20T02:41:50;6.30;99.90
28632;DHT22;15818;45.534;5.292;2022-11-20T02:44:17;6.30;99.90
28632;DHT22;15818;45.534;5.292;2022-11-20T02:46:43;6.40;99.90
28632;DHT22;15818;45.534;5.292;2022-11-20T02:49:08;6.50;99.90
28632;DHT22;15818;45.534;5.292;2022-11-20T02:51:34;6.40;99.90
28632;DHT22;15818;45.534;5.292;2022-11-20T02:53:59;6.40;99.90
28632;DHT22;15818;45.534;5.292;2022-11-20T02:56:25;6.40;99.90
28632;DHT22;15818;45.534;5.292;2022-11-20T02:58:51;6.40;99.90
28632;DHT22;15818;45.534;5.292;2022-11-20T03:01:16;6.40;99.90
28632;DHT22;15818;45.534;5.292;2022-11-20T03:03:42;6.40;99.90
28632;DHT22;15818;45.534;5.292;2022-11-20T03:06:07;6.40;99.90
28632;DHT22;15818;45.534;5.292;2022-11-20T03:08:33;6.40;99.90
28632;DHT22;15818;45.534;5.292;2022-11-20T03:11:06;6.40;99.90
28632;DHT22;15818;45.534;5.292;2022-11-20T03:13:31;6.40;99.90
28632;DHT22;15818;45.534;5.292;2022-11-20T03:15:57;6.40;99.90
28632;DHT22;15818;45.534;5.292;2022-11-20T03:18:23;6.40;99.90
28632;DHT22;15818;45.534;5.292;2022-11-20T03:20:48;6.30;99.90
28632;DHT22;15818;45.534;5.292;2022-11-20T03:23:14;6.40;99.90
28632;DHT22;15818;45.534;5.292;2022-11-20T03:25:39;6.30;99.90
28632;DHT22;15818;45.534;5.292;2022-11-20T03:28:05;6.30;99.90
28632;DHT22;15818;45.534;5.292;2022-11-20T03:30:30;6.30;99.90
28632;DHT22;15818;45.534;5.292;2022-11-20T03:32:56;6.40;99.90
28632;DHT22;15818;45.534;5.292;2022-11-20T03:35:22;6.30;99.90
28632;DHT22;15818;45.534;5.292;2022-11-20T03:37:47;6.30;99.90
28632;DHT22;15818;45.534;5.292;2022-11-20T03:40:13;6.30;99.90
28632;DHT22;15818;45.534;5.292;2022-11-20T03:42:39;6.20;99.90
28632;DHT22;15818;45.534;5.292;2022-11-20T03:45:11;6.20;99.90
28632;DHT22;15818;45.534;5.292;2022-11-20T03:47:37;6.10;99.90
28632;DHT22;15818;45.534;5.292;2022-11-20T03:50:03;6.10;99.90
28632;DHT22;15818;45.534;5.292;2022-11-20T03:52:29;6.10;99.90
28632;DHT22;15818;45.534;5.292;2022-11-20T03:54:54;6.10;99.90
28632;DHT22;15818;45.534;5.292;2022-11-20T03:57:20;6.10;99.90
28632;DHT22;15818;45.534;5.292;2022-11-20T03:59:46;6.00;99.90
28632;DHT22;15818;45.534;5.292;2022-11-20T04:02:11;5.90;99.90
28632;DHT22;15818;45.534;5.292;2022-11-20T04:04:37;5.80;99.90
28632;DHT22;15818;45.534;5.292;2022-11-20T04:07:02;5.90;99.90
28632;DHT22;15818;45.534;5.292;2022-11-20T04:09:28;5.80;99.90
28632;DHT22;15818;45.534;5.292;2022-11-20T04:11:53;5.80;99.90
28632;DHT22;15818;45.534;5.292;2022-11-20T04:14:19;5.80;99.90
28632;DHT22;15818;45.534;5.292;2022-11-20T04:16:45;5.80;99.90
28632;DHT22;15818;45.534;5.292;2022-11-20T04:19:11;5.80;99.90
28632;DHT22;15818;45.534;5.292;2022-11-20T04:21:37;5.80;99.90
28632;DHT22;15818;45.534;5.292;2022-11-20T04:24:03;5.90;99.90
28632;DHT22;15818;45.534;5.292;2022-11-20T04:26:29;5.90;99.90
28632;DHT22;15818;45.534;5.292;2022-11-20T04:28:55;5.80;99.90
28632;DHT22;15818;45.534;5.292;2022-11-20T04:31:21;5.80;99.90
28632;DHT22;15818;45.534;5.292;2022-11-20T04:33:47;5.80;99.90
28632;DHT22;15818;45.534;5.292;2022-11-20T04:36:15;5.80;99.90
28632;DHT22;15818;45.534;5.292;2022-11-20T04:38:40;5.90;99.90
28632;DHT22;15818;45.534;5.292;2022-11-20T04:41:07;5.90;99.90
28632;DHT22;15818;45.534;5.292;2022-11-20T04:43:32;5.90;99.90
28632;DHT22;15818;45.534;5.292;2022-11-20T04:45:58;5.90;99.90
28632;DHT22;15818;45.534;5.292;2022-11-20T04:48:25;5.90;99.90
28632;DHT22;15818;45.534;5.292;2022-11-20T04:50:51;5.80;99.90
28632;DHT22;15818;45.534;5.292;2022-11-20T04:53:16;5.80;99.90
28632;DHT22;15818;45.534;5.292;2022-11-20T04:55:42;5.90;99.90
28632;DHT22;15818;45.534;5.292;2022-11-20T04:58:08;5.90;99.90
28632;DHT22;15818;45.534;5.292;2022-11-20T05:00:33;5.80;99.90
28632;DHT22;15818;45.534;5.292;2022-11-20T05:02:59;5.70;99.90
28632;DHT22;15818;45.534;5.292;2022-11-20T05:05:24;5.70;99.90
28632;DHT22;15818;45.534;5.292;2022-11-20T05:07:50;5.70;99.90
28632;DHT22;15818;45.534;5.292;2022-11-20T05:10:15;5.70;99.90
28632;DHT22;15818;45.534;5.292;2022-11-20T05:12:41;5.70;99.90
28632;DHT22;15818;45.534;5.292;2022-11-20T05:15:07;5.60;99.90
28632;DHT22;15818;45.534;5.292;2022-11-20T05:17:33;5.70;99.90
28632;DHT22;15818;45.534;5.292;2022-11-20T05:19:58;5.80;99.90
28632;DHT22;15818;45.534;5.292;2022-11-20T05:22:24;5.90;99.90
28632;DHT22;15818;45.534;5.292;2022-11-20T05:24:49;5.80;99.90
28632;DHT22;15818;45.534;5.292;2022-11-20T05:27:15;5.90;99.90
28632;DHT22;15818;45.534;5.292;2022-11-20T05:29:40;5.90;99.90
28632;DHT22;15818;45.534;5.292;2022-11-20T05:32:06;5.90;99.90
28632;DHT22;15818;45.534;5.292;2022-11-20T05:34:35;6.00;99.90
28632;DHT22;15818;45.534;5.292;2022-11-20T05:37:01;6.00;99.90
28632;DHT22;15818;45.534;5.292;2022-11-20T05:39:26;6.10;99.90
28632;DHT22;15818;45.534;5.292;2022-11-20T05:41:52;6.10;99.90
28632;DHT22;15818;45.534;5.292;2022-11-20T05:44:38;6.10;99.90
28632;DHT22;15818;45.534;5.292;2022-11-20T05:47:03;6.00;99.90
28632;DHT22;15818;45.534;5.292;2022-11-20T05:49:29;5.90;99.90
28632;DHT22;15818;45.534;5.292;2022-11-20T05:51:55;5.90;99.90
28632;DHT22;15818;45.534;5.292;2022-11-20T05:54:20;5.90;99.90
28632;DHT22;15818;45.534;5.292;2022-11-20T05:56:46;5.80;99.90
28632;DHT22;15818;45.534;5.292;2022-11-20T05:59:11;5.80;99.90
28632;DHT22;15818;45.534;5.292;2022-11-20T06:01:37;5.80;99.90
28632;DHT22;15818;45.534;5.292;2022-11-20T06:04:02;5.80;99.90
28632;DHT22;15818;45.534;5.292;2022-11-20T06:06:28;5.80;99.90
28632;DHT22;15818;45.534;5.292;2022-11-20T06:08:54;5.80;99.90
28632;DHT22;15818;45.534;5.292;2022-11-20T06:11:19;5.90;99.90
28632;DHT22;15818;45.534;5.292;2022-11-20T06:13:45;5.90;99.90
28632;DHT22;15818;45.534;5.292;2022-11-20T06:16:12;5.90;99.90
28632;DHT22;15818;45.534;5.292;2022-11-20T06:18:38;5.90;99.90
28632;DHT22;15818;45.534;5.292;2022-11-20T06:23:33;6.10;99.90
28632;DHT22;15818;45.534;5.292;2022-11-20T06:26:06;6.10;99.90
28632;DHT22;15818;45.534;5.292;2022-11-20T06:28:32;6.20;99.90
28632;DHT22;15818;45.534;5.292;2022-11-20T06:30:57;6.20;99.90
28632;DHT22;15818;45.534;5.292;2022-11-20T06:33:23;6.20;99.90
28632;DHT22;15818;45.534;5.292;2022-11-20T06:35:49;6.30;99.90
28632;DHT22;15818;45.534;5.292;2022-11-20T06:38:14;6.30;99.90
28632;DHT22;15818;45.534;5.292;2022-11-20T06:40:40;6.30;99.90
28632;DHT22;15818;45.534;5.292;2022-11-20T06:43:06;6.30;99.90
28632;DHT22;15818;45.534;5.292;2022-11-20T06:45:32;6.30;99.90
28632;DHT22;15818;45.534;5.292;2022-11-20T06:47:57;6.30;99.90
28632;DHT22;15818;45.534;5.292;2022-11-20T06:50:23;6.30;99.90
28632;DHT22;15818;45.534;5.292;2022-11-20T06:52:49;6.40;99.90
28632;DHT22;15818;45.534;5.292;2022-11-20T06:55:14;6.30;99.90
28632;DHT22;15818;45.534;5.292;2022-11-20T06:57:40;6.30;99.90
28632;DHT22;15818;45.534;5.292;2022-11-20T07:00:06;6.30;99.90
28632;DHT22;15818;45.534;5.292;2022-11-20T07:02:31;6.30;99.90
28632;DHT22;15818;45.534;5.292;2022-11-20T07:04:57;6.30;99.90
28632;DHT22;15818;45.534;5.292;2022-11-20T07:07:22;6.30;99.90
28632;DHT22;15818;45.534;5.292;2022-11-20T07:09:48;6.30;99.90
28632;DHT22;15818;45.534;5.292;2022-11-20T07:12:13;6.30;99.90
28632;DHT22;15818;45.534;5.292;2022-11-20T07:14:39;6.30;99.90
28632;DHT22;15818;45.534;5.292;2022-11-20T07:17:05;6.30;99.90
28632;DHT22;15818;45.534;5.292;2022-11-20T07:19:30;6.30;99.90
28632;DHT22;15818;45.534;5.292;2022-11-20T07:21:56;6.30;99.90
28632;DHT22;15818;45.534;5.292;2022-11-20T07:24:21;6.40;99.90
28632;DHT22;15818;45.534;5.292;2022-11-20T07:26:47;6.40;99.90
28632;DHT22;15818;45.534;5.292;2022-11-20T07:29:14;6.40;99.90
28632;DHT22;15818;45.534;5.292;2022-11-20T07:31:40;6.40;99.90
28632;DHT22;15818;45.534;5.292;2022-11-20T07:34:05;6.40;99.90
28632;DHT22;15818;45.534;5.292;2022-11-20T07:36:31;6.50;99.90
28632;DHT22;15818;45.534;5.292;2022-11-20T07:38:56;6.40;99.90
28632;DHT22;15818;45.534;5.292;2022-11-20T07:41:22;6.50;99.90
28632;DHT22;15818;45.534;5.292;2022-11-20T07:43:48;6.40;99.90
28632;DHT22;15818;45.534;5.292;2022-11-20T07:46:13;6.50;99.90
28632;DHT22;15818;45.534;5.292;2022-11-20T07:48:39;6.50;99.90
28632;DHT22;15818;45.534;5.292;2022-11-20T07:51:05;6.40;99.90
28632;DHT22;15818;45.534;5.292;2022-11-20T07:53:30;6.40;99.90
28632;DHT22;15818;45.534;5.292;2022-11-20T07:55:59;6.50;99.90
28632;DHT22;15818;45.534;5.292;2022-11-20T07:58:24;6.50;99.90
28632;DHT22;15818;45.534;5.292;2022-11-20T08:00:50;6.60;99.90
28632;DHT22;15818;45.534;5.292;2022-11-20T08:03:15;6.60;99.90
28632;DHT22;15818;45.534;5.292;2022-11-20T08:05:41;6.60;99.90
28632;DHT22;15818;45.534;5.292;2022-11-20T08:08:06;6.60;99.90
28632;DHT22;15818;45.534;5.292;2022-11-20T08:10:33;6.60;99.90
28632;DHT22;15818;45.534;5.292;2022-11-20T08:12:58;6.60;99.90
28632;DHT22;15818;45.534;5.292;2022-11-20T08:15:47;6.50;99.90
28632;DHT22;15818;45.534;5.292;2022-11-20T08:18:12;6.60;99.90
28632;DHT22;15818;45.534;5.292;2022-11-20T08:20:38;6.60;99.90
28632;DHT22;15818;45.534;5.292;2022-11-20T08:23:05;6.70;99.90
28632;DHT22;15818;45.534;5.292;2022-11-20T08:25:32;6.80;99.90
28632;DHT22;15818;45.534;5.292;2022-11-20T08:27:58;6.80;99.90
28632;DHT22;15818;45.534;5.292;2022-11-20T08:30:24;6.90;99.90
28632;DHT22;15818;45.534;5.292;2022-11-20T08:32:49;6.90;99.90
28632;DHT22;15818;45.534;5.292;2022-11-20T08:35:15;7.10;99.90
28632;DHT22;15818;45.534;5.292;2022-11-20T08:37:41;7.20;99.90
28632;DHT22;15818;45.534;5.292;2022-11-20T08:40:10;7.20;99.90
28632;DHT22;15818;45.534;5.292;2022-11-20T08:42:35;7.20;99.90
28632;DHT22;15818;45.534;5.292;2022-11-20T08:45:01;7.10;99.90
28632;DHT22;15818;45.534;5.292;2022-11-20T08:47:27;7.20;99.90
28632;DHT22;15818;45.534;5.292;2022-11-20T08:49:52;7.30;99.90
28632;DHT22;15818;45.534;5.292;2022-11-20T08:52:18;7.40;99.90
28632;DHT22;15818;45.534;5.292;2022-11-20T08:54:43;7.60;99.90
28632;DHT22;15818;45.534;5.292;2022-11-20T08:57:09;7.70;99.90
28632;DHT22;15818;45.534;5.292;2022-11-20T08:59:34;8.10;99.90
28632;DHT22;15818;45.534;5.292;2022-11-20T09:02:00;8.40;99.90
28632;DHT22;15818;45.534;5.292;2022-11-20T09:04:25;8.20;99.90
28632;DHT22;15818;45.534;5.292;2022-11-20T09:06:51;8.20;99.90
28632;DHT22;15818;45.534;5.292;2022-11-20T09:09:17;8.30;99.90
28632;DHT22;15818;45.534;5.292;2022-11-20T09:11:43;8.30;99.90
28632;DHT22;15818;45.534;5.292;2022-11-20T09:14:09;8.30;99.90
28632;DHT22;15818;45.534;5.292;2022-11-20T09:16:35;8.50;99.90
28632;DHT22;15818;45.534;5.292;2022-11-20T09:19:00;8.60;99.90
28632;DHT22;15818;45.534;5.292;2022-11-20T09:21:26;8.60;99.90
28632;DHT22;15818;45.534;5.292;2022-11-20T09:23:52;8.40;99.90
28632;DHT22;15818;45.534;5.292;2022-11-20T09:26:17;8.30;99.90
28632;DHT22;15818;45.534;5.292;2022-11-20T09:28:43;8.20;99.90
28632;DHT22;15818;45.534;5.292;2022-11-20T09:31:09;8.00;99.90
28632;DHT22;15818;45.534;5.292;2022-11-20T09:33:39;7.90;99.90
28632;DHT22;15818;45.534;5.292;2022-11-20T09:36:04;7.90;99.90
28632;DHT22;15818;45.534;5.292;2022-11-20T09:38:30;7.80;99.90
28632;DHT22;15818;45.534;5.292;2022-11-20T09:40:57;8.00;99.90
28632;DHT22;15818;45.534;5.292;2022-11-20T09:43:32;7.90;99.90
28632;DHT22;15818;45.534;5.292;2022-11-20T09:56:19;7.80;99.90
28632;DHT22;15818;45.534;5.292;2022-11-20T09:58:47;7.80;99.90
28632;DHT22;15818;45.534;5.292;2022-11-20T10:01:17;8.00;99.90
28632;DHT22;15818;45.534;5.292;2022-11-20T10:06:16;7.80;99.90
28632;DHT22;15818;45.534;5.292;2022-11-20T10:08:55;8.10;99.90
28632;DHT22;15818;45.534;5.292;2022-11-20T10:14:14;8.10;99.90
28632;DHT22;15818;45.534;5.292;2022-11-20T10:19:36;8.70;99.90
28632;DHT22;15818;45.534;5.292;2022-11-20T10:22:09;9.10;99.90
28632;DHT22;15818;45.534;5.292;2022-11-20T10:32:43;10.10;99.90
28632;DHT22;15818;45.534;5.292;2022-11-20T10:37:47;13.50;99.90
28632;DHT22;15818;45.534;5.292;2022-11-20T10:43:02;17.10;99.90
28632;DHT22;15818;45.534;5.292;2022-11-20T10:45:34;18.60;99.90
28632;DHT22;15818;45.534;5.292;2022-11-20T10:50:32;16.80;99.90
28632;DHT22;15818;45.534;5.292;2022-11-20T10:58:10;12.50;99.90
28632;DHT22;15818;45.534;5.292;2022-11-20T11:00:38;11.10;99.90
28632;DHT22;15818;45.534;5.292;2022-11-20T11:03:07;10.40;99.90
28632;DHT22;15818;45.534;5.292;2022-11-20T11:05:40;9.90;99.90
28632;DHT22;15818;45.534;5.292;2022-11-20T11:08:10;9.80;99.90
28632;DHT22;15818;45.534;5.292;2022-11-20T11:13:22;16.30;99.90
28632;DHT22;15818;45.534;5.292;2022-11-20T11:15:47;18.40;99.90
28632;DHT22;15818;45.534;5.292;2022-11-20T11:18:22;19.30;99.90
28632;DHT22;15818;45.534;5.292;2022-11-20T11:20:51;19.40;99.90
28632;DHT22;15818;45.534;5.292;2022-11-20T11:25:58;21.10;99.90
28632;DHT22;15818;45.534;5.292;2022-11-20T11:28:25;22.10;99.90
28632;DHT22;15818;45.534;5.292;2022-11-20T11:30:52;21.10;99.90
28632;DHT22;15818;45.534;5.292;2022-11-20T11:33:19;19.90;99.90
28632;DHT22;15818;45.534;5.292;2022-11-20T11:35:46;21.20;99.90
28632;DHT22;15818;45.534;5.292;2022-11-20T11:38:13;21.80;99.90
28632;DHT22;15818;45.534;5.292;2022-11-20T11:40:40;17.70;99.90
28632;DHT22;15818;45.534;5.292;2022-11-20T11:43:06;15.20;99.90
28632;DHT22;15818;45.534;5.292;2022-11-20T11:45:53;13.90;99.90
28632;DHT22;15818;45.534;5.292;2022-11-20T11:48:19;13.30;99.90
28632;DHT22;15818;45.534;5.292;2022-11-20T11:50:49;13.80;99.90
28632;DHT22;15818;45.534;5.292;2022-11-20T11:53:18;17.10;99.90
28632;DHT22;15818;45.534;5.292;2022-11-20T12:01:06;19.80;99.90
28632;DHT22;15818;45.534;5.292;2022-11-20T12:03:36;17.20;99.90
28632;DHT22;15818;45.534;5.292;2022-11-20T12:06:10;18.50;99.90
28632;DHT22;15818;45.534;5.292;2022-11-20T12:13:39;19.70;99.90
28632;DHT22;15818;45.534;5.292;2022-11-20T12:16:11;21.60;99.90
28632;DHT22;15818;45.534;5.292;2022-11-20T12:18:38;22.50;99.90
28632;DHT22;15818;45.534;5.292;2022-11-20T12:23:44;23.80;99.90
28632;DHT22;15818;45.534;5.292;2022-11-20T12:29:01;22.70;99.90
28632;DHT22;15818;45.534;5.292;2022-11-20T12:31:42;23.90;99.90
28632;DHT22;15818;45.534;5.292;2022-11-20T12:36:53;24.20;98.90
28632;DHT22;15818;45.534;5.292;2022-11-20T12:41:50;25.20;96.90
28632;DHT22;15818;45.534;5.292;2022-11-20T12:47:35;24.70;97.80
28632;DHT22;15818;45.534;5.292;2022-11-20T12:55:08;26.10;94.40
28632;DHT22;15818;45.534;5.292;2022-11-20T12:57:41;25.20;95.30
28632;DHT22;15818;45.534;5.292;2022-11-20T13:05:18;24.50;95.40
28632;DHT22;15818;45.534;5.292;2022-11-20T13:07:44;24.30;95.30
28632;DHT22;15818;45.534;5.292;2022-11-20T13:10:16;22.90;97.60
28632;DHT22;15818;45.534;5.292;2022-11-20T13:12:45;21.10;99.10
28632;DHT22;15818;45.534;5.292;2022-11-20T13:17:45;16.70;99.90
28632;DHT22;15818;45.534;5.292;2022-11-20T13:20:16;20.50;99.90
28632;DHT22;15818;45.534;5.292;2022-11-20T13:22:49;20.30;99.90
28632;DHT22;15818;45.534;5.292;2022-11-20T13:25:49;18.40;99.90
28632;DHT22;15818;45.534;5.292;2022-11-20T13:30:36;21.50;99.40
28632;DHT22;15818;45.534;5.292;2022-11-20T13:33:09;23.10;97.90
28632;DHT22;15818;45.534;5.292;2022-11-20T13:35:55;23.70;95.70
28632;DHT22;15818;45.534;5.292;2022-11-20T13:38:20;24.20;95.40
28632;DHT22;15818;45.534;5.292;2022-11-20T13:40:56;24.10;96.20
28632;DHT22;15818;45.534;5.292;2022-11-20T13:43:43;24.30;95.30
28632;DHT22;15818;45.534;5.292;2022-11-20T13:46:09;24.00;94.60
28632;DHT22;15818;45.534;5.292;2022-11-20T13:48:41;24.00;95.00
28632;DHT22;15818;45.534;5.292;2022-11-20T14:02:00;20.80;97.70
28632;DHT22;15818;45.534;5.292;2022-11-20T14:04:27;21.10;96.90
28632;DHT22;15818;45.534;5.292;2022-11-20T14:06:54;22.00;96.20
28632;DHT22;15818;45.534;5.292;2022-11-20T14:09:30;23.00;95.40
28632;DHT22;15818;45.534;5.292;2022-11-20T14:11:56;23.00;95.00
28632;DHT22;15818;45.534;5.292;2022-11-20T14:14:23;22.60;95.30
28632;DHT22;15818;45.534;5.292;2022-11-20T14:16:49;22.00;96.20
28632;DHT22;15818;45.534;5.292;2022-11-20T14:24:31;22.30;95.70
28632;DHT22;15818;45.534;5.292;2022-11-20T14:26:56;22.00;96.50
28632;DHT22;15818;45.534;5.292;2022-11-20T14:29:23;21.70;95.80
28632;DHT22;15818;45.534;5.292;2022-11-20T14:31:51;20.30;98.20
28632;DHT22;15818;45.534;5.292;2022-11-20T14:34:21;19.60;97.90
28632;DHT22;15818;45.534;5.292;2022-11-20T14:36:47;18.90;99.30
28632;DHT22;15818;45.534;5.292;2022-11-20T14:39:22;16.90;99.90
28632;DHT22;15818;45.534;5.292;2022-11-20T14:41:50;16.70;99.90
28632;DHT22;15818;45.534;5.292;2022-11-20T14:44:15;15.40;99.90
28632;DHT22;15818;45.534;5.292;2022-11-20T14:46:41;14.90;99.90
28632;DHT22;15818;45.534;5.292;2022-11-20T14:49:07;14.40;99.90
28632;DHT22;15818;45.534;5.292;2022-11-20T14:51:38;14.20;99.90
28632;DHT22;15818;45.534;5.292;2022-11-20T14:54:10;13.70;99.90
28632;DHT22;15818;45.534;5.292;2022-11-20T14:56:36;13.00;99.90
28632;DHT22;15818;45.534;5.292;2022-11-20T14:59:01;12.80;99.90
28632;DHT22;15818;45.534;5.292;2022-11-20T15:01:27;13.20;99.90
28632;DHT22;15818;45.534;5.292;2022-11-20T15:03:59;13.20;99.90
28632;DHT22;15818;45.534;5.292;2022-11-20T15:06:25;13.00;99.90
28632;DHT22;15818;45.534;5.292;2022-11-20T15:08:51;13.20;99.90
28632;DHT22;15818;45.534;5.292;2022-11-20T15:11:18;13.10;99.90
28632;DHT22;15818;45.534;5.292;2022-11-20T15:13:43;13.40;99.90
28632;DHT22;15818;45.534;5.292;2022-11-20T15:16:13;13.30;99.90
28632;DHT22;15818;45.534;5.292;2022-11-20T15:18:41;12.90;99.90
28632;DHT22;15818;45.534;5.292;2022-11-20T15:21:10;12.30;99.90
28632;DHT22;15818;45.534;5.292;2022-11-20T15:23:36;12.60;99.90
28632;DHT22;15818;45.534;5.292;2022-11-20T15:26:03;12.60;99.90
28632;DHT22;15818;45.534;5.292;2022-11-20T15:30:54;12.50;99.90
28632;DHT22;15818;45.534;5.292;2022-11-20T15:33:21;12.10;99.90
28632;DHT22;15818;45.534;5.292;2022-11-20T15:35:47;12.00;99.90
28632;DHT22;15818;45.534;5.292;2022-11-20T15:38:12;11.70;99.90
28632;DHT22;15818;45.534;5.292;2022-11-20T15:40:38;11.30;99.90
28632;DHT22;15818;45.534;5.292;2022-11-20T15:43:04;11.10;99.90
28632;DHT22;15818;45.534;5.292;2022-11-20T15:48:09;11.50;99.90
28632;DHT22;15818;45.534;5.292;2022-11-20T15:50:37;11.50;99.90
28632;DHT22;15818;45.534;5.292;2022-11-20T15:53:03;11.20;99.90
28632;DHT22;15818;45.534;5.292;2022-11-20T15:55:29;11.00;99.90
28632;DHT22;15818;45.534;5.292;2022-11-20T15:57:55;10.80;99.90
28632;DHT22;15818;45.534;5.292;2022-11-20T16:00:21;10.60;99.90
28632;DHT22;15818;45.534;5.292;2022-11-20T16:02:46;10.60;99.90
28632;DHT22;15818;45.534;5.292;2022-11-20T16:05:12;10.50;99.90
28632;DHT22;15818;45.534;5.292;2022-11-20T16:07:38;10.10;99.90
28632;DHT22;15818;45.534;5.292;2022-11-20T16:10:04;9.90;99.90
28632;DHT22;15818;45.534;5.292;2022-11-20T16:12:30;9.80;99.90
28632;DHT22;15818;45.534;5.292;2022-11-20T16:15:14;10.00;99.90
28632;DHT22;15818;45.534;5.292;2022-11-20T16:17:58;10.10;99.90
28632;DHT22;15818;45.534;5.292;2022-11-20T16:20:24;10.20;99.90
28632;DHT22;15818;45.534;5.292;2022-11-20T16:22:49;10.20;99.90
28632;DHT22;15818;45.534;5.292;2022-11-20T16:25:15;10.20;99.90
28632;DHT22;15818;45.534;5.292;2022-11-20T16:27:41;10.10;99.90
28632;DHT22;15818;45.534;5.292;2022-11-20T16:30:07;10.00;99.90
28632;DHT22;15818;45.534;5.292;2022-11-20T16:32:32;10.00;99.90
28632;DHT22;15818;45.534;5.292;2022-11-20T16:34:58;9.90;99.90
28632;DHT22;15818;45.534;5.292;2022-11-20T16:37:23;9.70;99.90
28632;DHT22;15818;45.534;5.292;2022-11-20T16:39:49;9.50;99.90
28632;DHT22;15818;45.534;5.292;2022-11-20T16:42:15;9.70;99.90
28632;DHT22;15818;45.534;5.292;2022-11-20T16:44:40;9.50;99.90
28632;DHT22;15818;45.534;5.292;2022-11-20T16:47:06;9.70;99.90
28632;DHT22;15818;45.534;5.292;2022-11-20T16:49:32;9.80;99.90
28632;DHT22;15818;45.534;5.292;2022-11-20T16:51:58;9.90;99.90
28632;DHT22;15818;45.534;5.292;2022-11-20T16:54:23;9.70;99.90
28632;DHT22;15818;45.534;5.292;2022-11-20T16:56:49;8.90;99.90
28632;DHT22;15818;45.534;5.292;2022-11-20T16:59:16;8.70;99.90
28632;DHT22;15818;45.534;5.292;2022-11-20T17:01:42;8.80;99.90
28632;DHT22;15818;45.534;5.292;2022-11-20T17:04:08;8.60;99.90
28632;DHT22;15818;45.534;5.292;2022-11-20T17:06:35;8.90;99.90
28632;DHT22;15818;45.534;5.292;2022-11-20T17:09:00;9.10;99.90
28632;DHT22;15818;45.534;5.292;2022-11-20T17:11:26;9.00;99.90
28632;DHT22;15818;45.534;5.292;2022-11-20T17:13:53;9.00;99.90
28632;DHT22;15818;45.534;5.292;2022-11-20T17:16:20;9.10;99.90
28632;DHT22;15818;45.534;5.292;2022-11-20T17:18:46;9.20;99.90
28632;DHT22;15818;45.534;5.292;2022-11-20T17:21:14;9.50;99.90
28632;DHT22;15818;45.534;5.292;2022-11-20T17:23:40;9.40;99.90
28632;DHT22;15818;45.534;5.292;2022-11-20T17:26:16;9.50;99.90
28632;DHT22;15818;45.534;5.292;2022-11-20T17:28:42;9.50;99.90
28632;DHT22;15818;45.534;5.292;2022-11-20T17:31:09;9.50;99.90
28632;DHT22;15818;45.534;5.292;2022-11-20T17:33:35;9.50;99.90